• Join FlightAware (Why Join?)
  • Login
  • US Flag 
05:34AM EDT


 

Airport Tracker/Info


-or-


 

Live Flight TrackerFlight Track Log ✈ CPT1940 ✈ 30-Oct-2013 ✈ KRKS - KCPR

Flight Track Log - Related Links

Times and Time Zones

All times are in EDT time to prevent confusion due to time zone crossing. See the CPT1940 flight status page for this flight to view local times or setup timezone preferences in your user account.

Time Position Orientation Groundspeed Altitude Reporting Facility
EDT Latitude Longitude Course Direction KTS MPH feet Rate Location/Type
02:28PM 41.6008 -109.0789 55° Northeast 123 142 7,400  Level Salt Lake Center
02:29PM 41.6300 -109.0400 45° Northeast 146 168 8,600 1,080 Climbing Salt Lake Center
02:30PM 41.6525 -108.9992 54° Northeast 145 167 9,700 960 Climbing Salt Lake Center
02:31PM 41.6747 -108.9569 55° Northeast 144 166 10,700 1,020 Climbing Salt Lake Center
02:32PM 41.7661 -108.7374 55° Northeast  Level Estimated
02:32PM 41.6989 -108.9069 57° Northeast 144 166 11,900  Level Salt Lake Center
02:33PM 41.7905 -108.6902 55° Northeast  Level FlightAware Approximate
02:33PM 41.7200 -108.8653 56° Northeast 142 163 12,700  Level Salt Lake Center
02:34PM 41.7469 -108.8144 55° Northeast 145 167 13,000 120 Climbing Salt Lake Center
02:35PM 41.7739 -108.7636 55° Northeast 160 184 13,000  Level Salt Lake Center
02:36PM 41.8044 -108.7028 56° Northeast 171 197 13,000  Level Salt Lake Center
02:37PM 41.8308 -108.6514 55° Northeast 173 199 13,000  Level Salt Lake Center
02:38PM 41.8614 -108.5922 55° Northeast 174 200 13,000  Level Salt Lake Center
02:39PM 41.8878 -108.5408 55° Northeast 174 200 13,000  Level Salt Lake Center
02:40PM 41.9181 -108.4817 55° Northeast 173 199 13,000  Level Salt Lake Center
02:41PM 41.9442 -108.4300 56° Northeast 174 200 13,000  Level Salt Lake Center
02:42PM 41.9750 -108.3694 56° Northeast 175 201 13,000  Level Salt Lake Center
02:43PM 42.0014 -108.3183 55° Northeast 174 200 13,000  Level Salt Lake Center
02:44PM 42.0308 -108.2558 58° Northeast 176 203 13,000  Level Salt Lake Center
02:46PM 42.0575 -108.2033 56° Northeast 177 204 13,000  Level Salt Lake Center
02:47PM 42.0847 -108.1519 54° Northeast 176 203 13,000  Level Salt Lake Center
02:48PM 42.1150 -108.0906 56° Northeast 177 204 13,000  Level Salt Lake Center
02:49PM 42.1408 -108.0392 56° Northeast 175 201 13,000  Level Salt Lake Center
02:50PM 42.1708 -107.9794 56° Northeast 173 199 13,000  Level Salt Lake Center
02:51PM 42.1967 -107.9286 56° Northeast 173 199 13,100  Climbing Salt Lake Center
02:52PM 42.2261 -107.8678 57° Northeast 173 199 13,100  Level Salt Lake Center
02:53PM 42.2500 -107.8139 59° Northeast 174 200 13,100  Level Salt Lake Center
02:54PM 42.2797 -107.7533 56° Northeast 174 200 13,100  Level Salt Lake Center
02:55PM 42.3061 -107.7011 56° Northeast 175 201 13,100  Level Salt Lake Center
02:56PM 42.3367 -107.6417 55° Northeast 173 199 13,100  Level Salt Lake Center
02:57PM 42.3625 -107.5892 56° Northeast 174 200 13,100  Level Denver Center
02:58PM 42.3878 -107.5372 57° Northeast 173 199 13,100  Level Denver Center
02:59PM 42.4172 -107.4756 57° Northeast 174 200 13,100  Level Denver Center
03:00PM 42.4444 -107.4236 55° Northeast 176 203 13,100  Level Denver Center
03:01PM 42.4700 -107.3725 56° Northeast 173 199 13,100 -60 Level Denver Center
03:02PM 42.5028 -107.3031 57° Northeast 172 198 13,000 -60 Descending Salt Lake Center
03:03PM 42.5272 -107.2506 58° Northeast 172 198 13,000  Level Salt Lake Center
03:04PM 42.5553 -107.1914 57° Northeast 169 194 13,000  Level Salt Lake Center
03:05PM 42.5803 -107.1411 56° Northeast 168 193 13,000  Level Salt Lake Center
03:06PM 42.6061 -107.0906 55° Northeast 168 193 13,000  Level Denver Center
03:07PM 42.6325 -107.0347 57° Northeast 168 193 13,000 -300 Level Denver Center
03:08PM 42.6433 -106.9725 77° East 182 209 12,400 -780 Descending Denver Center
03:09PM 42.6481 -106.9003 85° East 188 216 11,400 -540 Descending Denver Center
03:10PM 42.6536 -106.8347 83° East 188 216 11,300 -120 Descending Denver Center
03:12PM 42.7023 -106.8004 27° Northeast  Level FlightAware Approximate
03:19PM 42.8900 -106.4751 61° Northeast  Level FlightAware Approximate
03:20PM 42.9000 -106.4500 61° Northeast  Level FlightAware Approximate
03:21PM 42.9080 -106.4644 61° Northeast  Level Estimated
03:22PM 42.9080 -106.4644 61° Northeast  Level Estimated
03:23PM 42.9080 -106.4644 61° Northeast  Level Estimated
03:24PM 42.9080 -106.4644 61° Northeast  Level Estimated
03:25PM 42.9080 -106.4644 61° Northeast  Level Estimated
03:26PM 42.9080 -106.4644 61° Northeast  Level Estimated